sensor_id;sensor_type;location;lat;lon;timestamp;P1;durP1;ratioP1;P2;durP2;ratioP2
43664;SDS011;29263;48.172;11.484;2022-08-05T00:01:16;3.42;;;2.65;;
43664;SDS011;29263;48.172;11.484;2022-08-05T00:03:47;3.25;;;2.75;;
43664;SDS011;29263;48.172;11.484;2022-08-05T00:06:13;2.65;;;2.40;;
43664;SDS011;29263;48.172;11.484;2022-08-05T00:08:40;5.13;;;2.50;;
43664;SDS011;29263;48.172;11.484;2022-08-05T00:11:10;3.92;;;2.70;;
43664;SDS011;29263;48.172;11.484;2022-08-05T00:13:38;3.40;;;2.50;;
43664;SDS011;29263;48.172;11.484;2022-08-05T00:16:06;2.50;;;2.22;;
43664;SDS011;29263;48.172;11.484;2022-08-05T00:18:34;4.43;;;2.70;;
43664;SDS011;29263;48.172;11.484;2022-08-05T00:21:01;3.17;;;2.65;;
43664;SDS011;29263;48.172;11.484;2022-08-05T00:23:26;3.45;;;2.47;;
43664;SDS011;29263;48.172;11.484;2022-08-05T00:25:52;3.35;;;2.55;;
43664;SDS011;29263;48.172;11.484;2022-08-05T00:28:17;3.05;;;2.75;;
43664;SDS011;29263;48.172;11.484;2022-08-05T00:30:43;3.50;;;2.78;;
43664;SDS011;29263;48.172;11.484;2022-08-05T00:33:09;4.13;;;2.83;;
43664;SDS011;29263;48.172;11.484;2022-08-05T00:35:35;6.22;;;2.75;;
43664;SDS011;29263;48.172;11.484;2022-08-05T00:38:00;4.63;;;2.25;;
43664;SDS011;29263;48.172;11.484;2022-08-05T00:40:27;4.07;;;3.03;;
43664;SDS011;29263;48.172;11.484;2022-08-05T00:42:53;2.85;;;2.40;;
43664;SDS011;29263;48.172;11.484;2022-08-05T00:45:21;3.13;;;2.80;;
43664;SDS011;29263;48.172;11.484;2022-08-05T00:47:46;3.90;;;2.90;;
43664;SDS011;29263;48.172;11.484;2022-08-05T00:50:12;4.72;;;2.83;;
43664;SDS011;29263;48.172;11.484;2022-08-05T00:52:38;3.65;;;2.75;;
43664;SDS011;29263;48.172;11.484;2022-08-05T00:55:04;3.28;;;2.83;;
43664;SDS011;29263;48.172;11.484;2022-08-05T00:57:29;3.25;;;2.70;;
43664;SDS011;29263;48.172;11.484;2022-08-05T00:59:55;3.28;;;2.78;;
43664;SDS011;29263;48.172;11.484;2022-08-05T01:02:21;2.90;;;2.60;;
43664;SDS011;29263;48.172;11.484;2022-08-05T01:04:46;3.35;;;2.95;;
43664;SDS011;29263;48.172;11.484;2022-08-05T01:07:12;4.25;;;2.90;;
43664;SDS011;29263;48.172;11.484;2022-08-05T01:09:37;3.67;;;2.80;;
43664;SDS011;29263;48.172;11.484;2022-08-05T01:12:07;2.50;;;2.30;;
43664;SDS011;29263;48.172;11.484;2022-08-05T01:14:51;3.25;;;2.40;;
43664;SDS011;29263;48.172;11.484;2022-08-05T01:17:31;3.15;;;2.60;;
43664;SDS011;29263;48.172;11.484;2022-08-05T01:20:05;2.65;;;2.42;;
43664;SDS011;29263;48.172;11.484;2022-08-05T01:28:16;3.03;;;2.72;;
43664;SDS011;29263;48.172;11.484;2022-08-05T01:33:38;3.05;;;2.60;;
43664;SDS011;29263;48.172;11.484;2022-08-05T01:36:12;4.10;;;3.47;;
43664;SDS011;29263;48.172;11.484;2022-08-05T01:38:41;2.90;;;2.58;;
43664;SDS011;29263;48.172;11.484;2022-08-05T01:41:08;3.70;;;2.88;;
43664;SDS011;29263;48.172;11.484;2022-08-05T01:43:35;3.22;;;2.38;;
43664;SDS011;29263;48.172;11.484;2022-08-05T01:46:02;5.22;;;2.83;;
43664;SDS011;29263;48.172;11.484;2022-08-05T01:48:28;3.30;;;2.55;;
43664;SDS011;29263;48.172;11.484;2022-08-05T01:50:58;3.17;;;2.65;;
43664;SDS011;29263;48.172;11.484;2022-08-05T01:53:26;3.15;;;2.70;;
43664;SDS011;29263;48.172;11.484;2022-08-05T01:55:53;3.15;;;2.85;;
43664;SDS011;29263;48.172;11.484;2022-08-05T01:58:23;3.17;;;2.60;;
43664;SDS011;29263;48.172;11.484;2022-08-05T02:00:51;4.75;;;3.35;;
43664;SDS011;29263;48.172;11.484;2022-08-05T02:03:28;3.13;;;2.83;;
43664;SDS011;29263;48.172;11.484;2022-08-05T02:05:58;3.58;;;3.00;;
43664;SDS011;29263;48.172;11.484;2022-08-05T02:08:32;5.05;;;3.10;;
43664;SDS011;29263;48.172;11.484;2022-08-05T02:11:01;3.22;;;2.80;;
43664;SDS011;29263;48.172;11.484;2022-08-05T02:16:06;3.33;;;3.03;;
43664;SDS011;29263;48.172;11.484;2022-08-05T02:19:09;4.78;;;3.47;;
43664;SDS011;29263;48.172;11.484;2022-08-05T02:21:53;3.88;;;2.70;;
43664;SDS011;29263;48.172;11.484;2022-08-05T02:24:37;3.88;;;3.08;;
43664;SDS011;29263;48.172;11.484;2022-08-05T02:27:05;4.28;;;2.88;;
43664;SDS011;29263;48.172;11.484;2022-08-05T02:29:34;4.03;;;2.90;;
43664;SDS011;29263;48.172;11.484;2022-08-05T02:32:03;4.32;;;2.97;;
43664;SDS011;29263;48.172;11.484;2022-08-05T02:34:32;4.22;;;3.15;;
43664;SDS011;29263;48.172;11.484;2022-08-05T02:37:01;3.13;;;2.70;;
43664;SDS011;29263;48.172;11.484;2022-08-05T02:39:28;3.33;;;2.93;;
43664;SDS011;29263;48.172;11.484;2022-08-05T02:41:59;3.30;;;3.00;;
43664;SDS011;29263;48.172;11.484;2022-08-05T02:44:26;3.95;;;3.13;;
43664;SDS011;29263;48.172;11.484;2022-08-05T02:46:55;3.75;;;3.10;;
43664;SDS011;29263;48.172;11.484;2022-08-05T02:49:22;3.22;;;2.88;;
43664;SDS011;29263;48.172;11.484;2022-08-05T02:51:50;3.92;;;2.70;;
43664;SDS011;29263;48.172;11.484;2022-08-05T02:54:17;3.88;;;2.90;;
43664;SDS011;29263;48.172;11.484;2022-08-05T02:56:46;3.60;;;2.90;;
43664;SDS011;29263;48.172;11.484;2022-08-05T02:59:12;3.55;;;2.85;;
43664;SDS011;29263;48.172;11.484;2022-08-05T03:01:41;3.60;;;2.67;;
43664;SDS011;29263;48.172;11.484;2022-08-05T03:04:10;3.50;;;3.03;;
43664;SDS011;29263;48.172;11.484;2022-08-05T03:06:38;3.38;;;3.05;;
43664;SDS011;29263;48.172;11.484;2022-08-05T03:09:06;3.83;;;2.83;;
43664;SDS011;29263;48.172;11.484;2022-08-05T03:11:32;5.97;;;2.90;;
43664;SDS011;29263;48.172;11.484;2022-08-05T03:14:35;5.47;;;2.75;;
43664;SDS011;29263;48.172;11.484;2022-08-05T03:17:01;4.35;;;2.47;;
43664;SDS011;29263;48.172;11.484;2022-08-05T03:19:26;2.97;;;2.67;;
43664;SDS011;29263;48.172;11.484;2022-08-05T03:21:52;3.45;;;2.55;;
43664;SDS011;29263;48.172;11.484;2022-08-05T03:24:18;4.70;;;2.85;;
43664;SDS011;29263;48.172;11.484;2022-08-05T03:26:45;3.08;;;2.72;;
43664;SDS011;29263;48.172;11.484;2022-08-05T03:29:11;5.07;;;3.08;;
43664;SDS011;29263;48.172;11.484;2022-08-05T03:31:36;3.53;;;3.03;;
43664;SDS011;29263;48.172;11.484;2022-08-05T03:34:03;3.40;;;2.90;;
43664;SDS011;29263;48.172;11.484;2022-08-05T03:36:29;6.53;;;3.25;;
43664;SDS011;29263;48.172;11.484;2022-08-05T03:38:55;4.35;;;3.03;;
43664;SDS011;29263;48.172;11.484;2022-08-05T03:41:21;3.90;;;2.97;;
43664;SDS011;29263;48.172;11.484;2022-08-05T03:43:47;3.58;;;2.67;;
43664;SDS011;29263;48.172;11.484;2022-08-05T03:46:13;3.72;;;3.00;;
43664;SDS011;29263;48.172;11.484;2022-08-05T03:48:38;3.38;;;2.97;;
43664;SDS011;29263;48.172;11.484;2022-08-05T03:51:12;3.08;;;2.80;;
43664;SDS011;29263;48.172;11.484;2022-08-05T03:53:47;2.97;;;2.70;;
43664;SDS011;29263;48.172;11.484;2022-08-05T03:56:35;3.42;;;3.13;;
43664;SDS011;29263;48.172;11.484;2022-08-05T03:59:06;5.03;;;3.13;;
43664;SDS011;29263;48.172;11.484;2022-08-05T04:01:43;4.53;;;2.95;;
43664;SDS011;29263;48.172;11.484;2022-08-05T04:04:11;3.72;;;2.92;;
43664;SDS011;29263;48.172;11.484;2022-08-05T04:06:40;4.43;;;2.88;;
43664;SDS011;29263;48.172;11.484;2022-08-05T04:09:08;4.10;;;3.03;;
43664;SDS011;29263;48.172;11.484;2022-08-05T04:11:35;5.65;;;3.17;;
43664;SDS011;29263;48.172;11.484;2022-08-05T04:14:02;5.38;;;2.97;;
43664;SDS011;29263;48.172;11.484;2022-08-05T04:16:28;3.83;;;3.10;;
43664;SDS011;29263;48.172;11.484;2022-08-05T04:18:56;3.22;;;2.83;;
43664;SDS011;29263;48.172;11.484;2022-08-05T04:21:22;4.63;;;3.42;;
43664;SDS011;29263;48.172;11.484;2022-08-05T04:23:48;3.90;;;2.95;;
43664;SDS011;29263;48.172;11.484;2022-08-05T04:26:14;3.50;;;2.97;;
43664;SDS011;29263;48.172;11.484;2022-08-05T04:28:40;4.43;;;3.10;;
43664;SDS011;29263;48.172;11.484;2022-08-05T04:31:05;3.30;;;3.00;;
43664;SDS011;29263;48.172;11.484;2022-08-05T04:33:31;5.93;;;3.03;;
43664;SDS011;29263;48.172;11.484;2022-08-05T04:35:59;3.70;;;2.97;;
43664;SDS011;29263;48.172;11.484;2022-08-05T04:38:24;6.10;;;3.17;;
43664;SDS011;29263;48.172;11.484;2022-08-05T04:40:50;4.43;;;3.42;;
43664;SDS011;29263;48.172;11.484;2022-08-05T04:43:15;4.47;;;3.00;;
43664;SDS011;29263;48.172;11.484;2022-08-05T04:45:41;3.75;;;2.88;;
43664;SDS011;29263;48.172;11.484;2022-08-05T04:51:35;3.35;;;2.95;;
43664;SDS011;29263;48.172;11.484;2022-08-05T04:54:00;4.10;;;3.40;;
43664;SDS011;29263;48.172;11.484;2022-08-05T04:56:26;4.80;;;3.08;;
43664;SDS011;29263;48.172;11.484;2022-08-05T04:58:52;4.20;;;2.90;;
43664;SDS011;29263;48.172;11.484;2022-08-05T05:01:17;4.60;;;3.03;;
43664;SDS011;29263;48.172;11.484;2022-08-05T05:03:43;3.53;;;2.88;;
43664;SDS011;29263;48.172;11.484;2022-08-05T05:06:09;3.00;;;2.70;;
43664;SDS011;29263;48.172;11.484;2022-08-05T05:08:36;3.40;;;2.80;;
43664;SDS011;29263;48.172;11.484;2022-08-05T05:11:02;2.97;;;2.67;;
43664;SDS011;29263;48.172;11.484;2022-08-05T05:13:27;3.45;;;2.80;;
43664;SDS011;29263;48.172;11.484;2022-08-05T05:15:53;2.92;;;2.42;;
43664;SDS011;29263;48.172;11.484;2022-08-05T05:18:19;3.22;;;2.50;;
43664;SDS011;29263;48.172;11.484;2022-08-05T05:20:45;2.95;;;2.45;;
43664;SDS011;29263;48.172;11.484;2022-08-05T05:23:11;2.30;;;2.10;;
43664;SDS011;29263;48.172;11.484;2022-08-05T05:25:39;3.40;;;1.80;;
43664;SDS011;29263;48.172;11.484;2022-08-05T05:28:08;2.85;;;2.47;;
43664;SDS011;29263;48.172;11.484;2022-08-05T05:30:35;2.45;;;2.10;;
43664;SDS011;29263;48.172;11.484;2022-08-05T05:33:02;2.83;;;2.35;;
43664;SDS011;29263;48.172;11.484;2022-08-05T05:35:29;2.30;;;2.10;;
43664;SDS011;29263;48.172;11.484;2022-08-05T05:37:56;2.33;;;2.10;;
43664;SDS011;29263;48.172;11.484;2022-08-05T05:40:27;2.85;;;2.58;;
43664;SDS011;29263;48.172;11.484;2022-08-05T05:42:53;2.50;;;2.30;;
43664;SDS011;29263;48.172;11.484;2022-08-05T05:45:19;2.90;;;2.15;;
43664;SDS011;29263;48.172;11.484;2022-08-05T05:47:45;5.50;;;2.13;;
43664;SDS011;29263;48.172;11.484;2022-08-05T05:50:12;3.63;;;2.28;;
43664;SDS011;29263;48.172;11.484;2022-08-05T05:52:40;5.72;;;1.90;;
43664;SDS011;29263;48.172;11.484;2022-08-05T05:55:07;3.15;;;1.98;;
43664;SDS011;29263;48.172;11.484;2022-08-05T05:57:35;2.30;;;1.92;;
43664;SDS011;29263;48.172;11.484;2022-08-05T06:00:03;3.20;;;2.08;;
43664;SDS011;29263;48.172;11.484;2022-08-05T06:02:30;2.63;;;2.13;;
43664;SDS011;29263;48.172;11.484;2022-08-05T06:04:56;5.07;;;1.60;;
43664;SDS011;29263;48.172;11.484;2022-08-05T06:07:21;3.83;;;1.85;;
43664;SDS011;29263;48.172;11.484;2022-08-05T06:09:47;3.17;;;1.90;;
43664;SDS011;29263;48.172;11.484;2022-08-05T06:12:13;2.53;;;1.70;;
43664;SDS011;29263;48.172;11.484;2022-08-05T06:14:38;2.38;;;1.60;;
43664;SDS011;29263;48.172;11.484;2022-08-05T06:17:06;2.78;;;1.90;;
43664;SDS011;29263;48.172;11.484;2022-08-05T06:19:31;4.55;;;1.98;;
43664;SDS011;29263;48.172;11.484;2022-08-05T06:21:57;3.78;;;1.98;;
43664;SDS011;29263;48.172;11.484;2022-08-05T06:24:23;2.63;;;1.73;;
43664;SDS011;29263;48.172;11.484;2022-08-05T06:26:48;2.35;;;1.90;;
43664;SDS011;29263;48.172;11.484;2022-08-05T06:29:14;3.53;;;1.85;;
43664;SDS011;29263;48.172;11.484;2022-08-05T06:31:39;1.85;;;1.63;;
43664;SDS011;29263;48.172;11.484;2022-08-05T06:34:05;1.88;;;1.67;;
43664;SDS011;29263;48.172;11.484;2022-08-05T06:36:31;3.88;;;1.85;;
43664;SDS011;29263;48.172;11.484;2022-08-05T06:38:58;2.28;;;1.83;;
43664;SDS011;29263;48.172;11.484;2022-08-05T06:41:36;3.65;;;1.73;;
43664;SDS011;29263;48.172;11.484;2022-08-05T06:44:02;2.33;;;1.85;;
43664;SDS011;29263;48.172;11.484;2022-08-05T06:46:29;2.80;;;1.70;;
43664;SDS011;29263;48.172;11.484;2022-08-05T06:48:55;4.70;;;1.77;;
43664;SDS011;29263;48.172;11.484;2022-08-05T06:51:21;2.70;;;1.67;;
43664;SDS011;29263;48.172;11.484;2022-08-05T06:53:47;2.13;;;1.58;;
43664;SDS011;29263;48.172;11.484;2022-08-05T06:56:12;2.75;;;1.80;;
43664;SDS011;29263;48.172;11.484;2022-08-05T06:58:38;3.28;;;2.00;;
43664;SDS011;29263;48.172;11.484;2022-08-05T07:01:04;2.50;;;1.92;;
43664;SDS011;29263;48.172;11.484;2022-08-05T07:03:30;4.60;;;1.90;;
43664;SDS011;29263;48.172;11.484;2022-08-05T07:05:57;2.70;;;1.50;;
43664;SDS011;29263;48.172;11.484;2022-08-05T07:08:22;2.35;;;1.80;;
43664;SDS011;29263;48.172;11.484;2022-08-05T07:10:49;3.45;;;1.85;;
43664;SDS011;29263;48.172;11.484;2022-08-05T07:13:15;5.15;;;1.92;;
43664;SDS011;29263;48.172;11.484;2022-08-05T07:15:59;1.70;;;1.60;;
43664;SDS011;29263;48.172;11.484;2022-08-05T07:18:44;3.97;;;2.25;;
43664;SDS011;29263;48.172;11.484;2022-08-05T07:21:09;2.72;;;1.92;;
43664;SDS011;29263;48.172;11.484;2022-08-05T07:23:35;2.70;;;1.75;;
43664;SDS011;29263;48.172;11.484;2022-08-05T07:26:01;3.55;;;2.05;;
43664;SDS011;29263;48.172;11.484;2022-08-05T07:28:28;2.60;;;1.80;;
43664;SDS011;29263;48.172;11.484;2022-08-05T07:30:53;3.22;;;1.80;;
43664;SDS011;29263;48.172;11.484;2022-08-05T07:33:19;2.70;;;1.73;;
43664;SDS011;29263;48.172;11.484;2022-08-05T07:35:46;2.05;;;1.85;;
43664;SDS011;29263;48.172;11.484;2022-08-05T07:39:03;3.45;;;1.77;;
43664;SDS011;29263;48.172;11.484;2022-08-05T07:41:30;4.33;;;2.37;;
43664;SDS011;29263;48.172;11.484;2022-08-05T07:43:57;4.57;;;2.38;;
43664;SDS011;29263;48.172;11.484;2022-08-05T07:46:33;5.25;;;2.10;;
43664;SDS011;29263;48.172;11.484;2022-08-05T07:49:00;5.72;;;2.17;;
43664;SDS011;29263;48.172;11.484;2022-08-05T07:51:26;6.25;;;1.90;;
43664;SDS011;29263;48.172;11.484;2022-08-05T07:53:52;6.40;;;2.20;;
43664;SDS011;29263;48.172;11.484;2022-08-05T07:56:28;2.10;;;1.67;;
43664;SDS011;29263;48.172;11.484;2022-08-05T07:59:40;2.65;;;2.13;;
43664;SDS011;29263;48.172;11.484;2022-08-05T08:02:15;3.95;;;1.90;;
43664;SDS011;29263;48.172;11.484;2022-08-05T08:04:41;5.15;;;2.13;;
43664;SDS011;29263;48.172;11.484;2022-08-05T08:07:08;2.95;;;2.10;;
43664;SDS011;29263;48.172;11.484;2022-08-05T08:09:34;3.17;;;2.15;;
43664;SDS011;29263;48.172;11.484;2022-08-05T08:11:59;2.70;;;2.33;;
43664;SDS011;29263;48.172;11.484;2022-08-05T08:14:25;4.15;;;2.33;;
43664;SDS011;29263;48.172;11.484;2022-08-05T08:16:50;2.58;;;2.28;;
43664;SDS011;29263;48.172;11.484;2022-08-05T08:19:17;3.13;;;2.42;;
43664;SDS011;29263;48.172;11.484;2022-08-05T08:21:44;3.55;;;2.60;;
43664;SDS011;29263;48.172;11.484;2022-08-05T08:24:10;5.68;;;2.10;;
43664;SDS011;29263;48.172;11.484;2022-08-05T08:26:36;9.30;;;2.65;;
43664;SDS011;29263;48.172;11.484;2022-08-05T08:29:01;8.25;;;2.42;;
43664;SDS011;29263;48.172;11.484;2022-08-05T08:31:27;4.53;;;2.40;;
43664;SDS011;29263;48.172;11.484;2022-08-05T08:33:53;5.10;;;2.50;;
43664;SDS011;29263;48.172;11.484;2022-08-05T08:36:18;8.05;;;2.63;;
43664;SDS011;29263;48.172;11.484;2022-08-05T08:38:44;3.50;;;1.88;;
43664;SDS011;29263;48.172;11.484;2022-08-05T08:41:09;5.15;;;2.33;;
43664;SDS011;29263;48.172;11.484;2022-08-05T08:43:39;4.88;;;2.97;;
43664;SDS011;29263;48.172;11.484;2022-08-05T08:46:07;6.00;;;2.30;;
43664;SDS011;29263;48.172;11.484;2022-08-05T08:48:34;2.35;;;2.00;;
43664;SDS011;29263;48.172;11.484;2022-08-05T08:51:12;3.83;;;2.63;;
43664;SDS011;29263;48.172;11.484;2022-08-05T08:53:38;5.55;;;2.58;;
43664;SDS011;29263;48.172;11.484;2022-08-05T08:56:05;6.15;;;2.63;;
43664;SDS011;29263;48.172;11.484;2022-08-05T08:58:30;5.90;;;2.50;;
43664;SDS011;29263;48.172;11.484;2022-08-05T09:00:56;3.97;;;2.40;;
43664;SDS011;29263;48.172;11.484;2022-08-05T09:03:22;5.97;;;2.10;;
43664;SDS011;29263;48.172;11.484;2022-08-05T09:05:48;4.45;;;2.20;;
43664;SDS011;29263;48.172;11.484;2022-08-05T09:08:14;4.25;;;2.20;;
43664;SDS011;29263;48.172;11.484;2022-08-05T09:10:41;4.80;;;2.20;;
43664;SDS011;29263;48.172;11.484;2022-08-05T09:13:09;5.38;;;2.20;;
43664;SDS011;29263;48.172;11.484;2022-08-05T09:15:38;5.60;;;2.50;;
43664;SDS011;29263;48.172;11.484;2022-08-05T09:18:07;6.80;;;2.08;;
43664;SDS011;29263;48.172;11.484;2022-08-05T09:20:33;4.65;;;2.40;;
43664;SDS011;29263;48.172;11.484;2022-08-05T09:25:35;1.98;;;1.80;;
43664;SDS011;29263;48.172;11.484;2022-08-05T09:28:16;4.70;;;2.35;;
43664;SDS011;29263;48.172;11.484;2022-08-05T09:30:53;4.82;;;2.30;;
43664;SDS011;29263;48.172;11.484;2022-08-05T09:33:21;6.40;;;2.33;;
43664;SDS011;29263;48.172;11.484;2022-08-05T09:41:28;5.60;;;2.17;;
43664;SDS011;29263;48.172;11.484;2022-08-05T09:43:54;5.90;;;2.53;;
43664;SDS011;29263;48.172;11.484;2022-08-05T09:46:27;5.90;;;2.03;;
43664;SDS011;29263;48.172;11.484;2022-08-05T09:49:01;4.95;;;2.10;;
43664;SDS011;29263;48.172;11.484;2022-08-05T09:51:37;2.85;;;1.75;;
43664;SDS011;29263;48.172;11.484;2022-08-05T09:54:06;6.05;;;2.30;;
43664;SDS011;29263;48.172;11.484;2022-08-05T09:56:36;8.40;;;2.00;;
43664;SDS011;29263;48.172;11.484;2022-08-05T09:59:03;5.45;;;2.50;;
43664;SDS011;29263;48.172;11.484;2022-08-05T10:01:31;2.80;;;1.90;;
43664;SDS011;29263;48.172;11.484;2022-08-05T10:04:18;5.20;;;1.90;;
43664;SDS011;29263;48.172;11.484;2022-08-05T10:06:52;3.50;;;1.90;;
43664;SDS011;29263;48.172;11.484;2022-08-05T10:09:21;5.63;;;1.65;;
43664;SDS011;29263;48.172;11.484;2022-08-05T10:11:47;6.25;;;3.28;;
43664;SDS011;29263;48.172;11.484;2022-08-05T10:16:51;4.93;;;2.28;;
43664;SDS011;29263;48.172;11.484;2022-08-05T10:19:24;3.95;;;1.95;;
43664;SDS011;29263;48.172;11.484;2022-08-05T10:21:50;2.58;;;1.73;;
43664;SDS011;29263;48.172;11.484;2022-08-05T10:24:16;2.78;;;1.90;;
43664;SDS011;29263;48.172;11.484;2022-08-05T10:26:44;4.93;;;1.98;;
43664;SDS011;29263;48.172;11.484;2022-08-05T10:29:12;7.25;;;1.80;;
43664;SDS011;29263;48.172;11.484;2022-08-05T10:31:39;4.68;;;1.90;;
43664;SDS011;29263;48.172;11.484;2022-08-05T10:34:08;3.85;;;1.90;;
43664;SDS011;29263;48.172;11.484;2022-08-05T10:36:35;5.85;;;2.05;;
43664;SDS011;29263;48.172;11.484;2022-08-05T10:39:04;3.30;;;2.13;;
43664;SDS011;29263;48.172;11.484;2022-08-05T10:44:19;1.88;;;1.70;;
43664;SDS011;29263;48.172;11.484;2022-08-05T10:46:55;4.53;;;1.75;;
43664;SDS011;29263;48.172;11.484;2022-08-05T10:49:22;5.63;;;1.70;;
43664;SDS011;29263;48.172;11.484;2022-08-05T10:51:50;6.38;;;1.63;;
43664;SDS011;29263;48.172;11.484;2022-08-05T10:55:01;2.72;;;1.65;;
43664;SDS011;29263;48.172;11.484;2022-08-05T10:57:29;5.70;;;1.90;;
43664;SDS011;29263;48.172;11.484;2022-08-05T11:05:23;2.97;;;1.60;;
43664;SDS011;29263;48.172;11.484;2022-08-05T11:08:02;4.70;;;1.60;;
43664;SDS011;29263;48.172;11.484;2022-08-05T11:10:30;7.10;;;1.90;;
43664;SDS011;29263;48.172;11.484;2022-08-05T11:12:57;2.38;;;1.70;;
43664;SDS011;29263;48.172;11.484;2022-08-05T11:15:27;2.03;;;1.85;;
43664;SDS011;29263;48.172;11.484;2022-08-05T11:18:14;5.32;;;1.52;;
43664;SDS011;29263;48.172;11.484;2022-08-05T11:20:53;5.00;;;2.10;;
43664;SDS011;29263;48.172;11.484;2022-08-05T11:29:01;4.45;;;1.52;;
43664;SDS011;29263;48.172;11.484;2022-08-05T11:31:29;1.85;;;1.35;;
43664;SDS011;29263;48.172;11.484;2022-08-05T11:39:15;3.00;;;1.52;;
43664;SDS011;29263;48.172;11.484;2022-08-05T11:42:01;3.70;;;1.40;;
43664;SDS011;29263;48.172;11.484;2022-08-05T11:44:34;2.20;;;1.48;;
43664;SDS011;29263;48.172;11.484;2022-08-05T11:47:02;1.73;;;1.40;;
43664;SDS011;29263;48.172;11.484;2022-08-05T11:49:28;3.53;;;1.45;;
43664;SDS011;29263;48.172;11.484;2022-08-05T11:51:54;3.70;;;1.92;;
43664;SDS011;29263;48.172;11.484;2022-08-05T11:54:21;2.42;;;1.65;;
43664;SDS011;29263;48.172;11.484;2022-08-05T11:56:51;1.50;;;1.40;;
43664;SDS011;29263;48.172;11.484;2022-08-05T11:59:19;5.40;;;1.88;;
43664;SDS011;29263;48.172;11.484;2022-08-05T12:04:17;3.83;;;1.70;;
43664;SDS011;29263;48.172;11.484;2022-08-05T12:06:43;3.45;;;1.60;;
43664;SDS011;29263;48.172;11.484;2022-08-05T12:09:09;1.98;;;1.73;;
43664;SDS011;29263;48.172;11.484;2022-08-05T12:11:35;3.75;;;1.52;;
43664;SDS011;29263;48.172;11.484;2022-08-05T12:14:05;1.63;;;1.45;;
43664;SDS011;29263;48.172;11.484;2022-08-05T12:16:35;6.38;;;1.85;;
43664;SDS011;29263;48.172;11.484;2022-08-05T12:19:13;3.60;;;1.30;;
43664;SDS011;29263;48.172;11.484;2022-08-05T12:21:48;2.83;;;1.45;;
43664;SDS011;29263;48.172;11.484;2022-08-05T12:24:16;2.47;;;1.60;;
43664;SDS011;29263;48.172;11.484;2022-08-05T12:26:48;2.67;;;1.55;;
43664;SDS011;29263;48.172;11.484;2022-08-05T12:31:51;5.20;;;1.80;;
43664;SDS011;29263;48.172;11.484;2022-08-05T12:34:19;7.53;;;2.00;;
43664;SDS011;29263;48.172;11.484;2022-08-05T12:36:47;2.92;;;1.90;;
43664;SDS011;29263;48.172;11.484;2022-08-05T12:39:16;3.60;;;1.60;;
43664;SDS011;29263;48.172;11.484;2022-08-05T12:41:43;4.90;;;1.75;;
43664;SDS011;29263;48.172;11.484;2022-08-05T12:44:10;3.55;;;1.63;;
43664;SDS011;29263;48.172;11.484;2022-08-05T12:46:38;3.17;;;1.27;;
43664;SDS011;29263;48.172;11.484;2022-08-05T12:49:06;8.38;;;1.70;;
43664;SDS011;29263;48.172;11.484;2022-08-05T12:51:52;2.13;;;1.50;;
43664;SDS011;29263;48.172;11.484;2022-08-05T12:56:52;3.08;;;1.77;;
43664;SDS011;29263;48.172;11.484;2022-08-05T12:59:22;2.47;;;1.60;;
43664;SDS011;29263;48.172;11.484;2022-08-05T13:01:56;5.05;;;2.03;;
43664;SDS011;29263;48.172;11.484;2022-08-05T13:04:27;3.67;;;2.08;;
43664;SDS011;29263;48.172;11.484;2022-08-05T13:06:57;2.47;;;1.75;;
43664;SDS011;29263;48.172;11.484;2022-08-05T13:09:26;3.13;;;1.63;;
43664;SDS011;29263;48.172;11.484;2022-08-05T13:12:11;2.42;;;1.50;;
43664;SDS011;29263;48.172;11.484;2022-08-05T13:14:42;2.92;;;1.75;;
43664;SDS011;29263;48.172;11.484;2022-08-05T13:19:41;2.65;;;1.63;;
43664;SDS011;29263;48.172;11.484;2022-08-05T13:22:52;2.85;;;1.90;;
43664;SDS011;29263;48.172;11.484;2022-08-05T13:25:18;3.50;;;1.63;;
43664;SDS011;29263;48.172;11.484;2022-08-05T13:30:18;3.55;;;1.50;;
43664;SDS011;29263;48.172;11.484;2022-08-05T13:32:45;3.47;;;1.48;;
43664;SDS011;29263;48.172;11.484;2022-08-05T13:35:12;4.03;;;1.55;;
43664;SDS011;29263;48.172;11.484;2022-08-05T13:37:39;2.42;;;1.40;;
43664;SDS011;29263;48.172;11.484;2022-08-05T13:40:06;4.65;;;1.75;;
43664;SDS011;29263;48.172;11.484;2022-08-05T13:42:33;3.63;;;1.70;;
43664;SDS011;29263;48.172;11.484;2022-08-05T13:44:59;4.03;;;2.00;;
43664;SDS011;29263;48.172;11.484;2022-08-05T13:47:24;2.97;;;1.52;;
43664;SDS011;29263;48.172;11.484;2022-08-05T13:49:51;3.95;;;1.90;;
43664;SDS011;29263;48.172;11.484;2022-08-05T13:52:18;4.07;;;1.85;;
43664;SDS011;29263;48.172;11.484;2022-08-05T13:54:50;4.50;;;1.73;;
43664;SDS011;29263;48.172;11.484;2022-08-05T13:57:16;3.95;;;1.60;;
43664;SDS011;29263;48.172;11.484;2022-08-05T13:59:42;3.47;;;1.50;;
43664;SDS011;29263;48.172;11.484;2022-08-05T14:02:08;2.10;;;1.60;;
43664;SDS011;29263;48.172;11.484;2022-08-05T14:04:39;4.60;;;1.50;;
43664;SDS011;29263;48.172;11.484;2022-08-05T14:07:29;3.97;;;1.60;;
43664;SDS011;29263;48.172;11.484;2022-08-05T14:09:58;4.65;;;1.50;;
43664;SDS011;29263;48.172;11.484;2022-08-05T14:12:24;2.55;;;1.70;;
43664;SDS011;29263;48.172;11.484;2022-08-05T14:14:51;3.55;;;1.92;;
43664;SDS011;29263;48.172;11.484;2022-08-05T14:17:17;2.97;;;1.38;;
43664;SDS011;29263;48.172;11.484;2022-08-05T14:19:43;3.85;;;1.55;;
43664;SDS011;29263;48.172;11.484;2022-08-05T14:22:09;1.98;;;1.40;;
43664;SDS011;29263;48.172;11.484;2022-08-05T14:24:36;2.67;;;1.60;;
43664;SDS011;29263;48.172;11.484;2022-08-05T14:27:03;4.32;;;1.70;;
43664;SDS011;29263;48.172;11.484;2022-08-05T14:29:29;7.78;;;2.00;;
43664;SDS011;29263;48.172;11.484;2022-08-05T14:31:55;3.35;;;1.50;;
43664;SDS011;29263;48.172;11.484;2022-08-05T14:34:21;2.60;;;1.70;;
43664;SDS011;29263;48.172;11.484;2022-08-05T14:36:46;3.83;;;1.80;;
43664;SDS011;29263;48.172;11.484;2022-08-05T14:39:12;2.17;;;1.42;;
43664;SDS011;29263;48.172;11.484;2022-08-05T14:41:38;3.72;;;1.58;;
43664;SDS011;29263;48.172;11.484;2022-08-05T14:44:04;8.48;;;1.80;;
43664;SDS011;29263;48.172;11.484;2022-08-05T14:46:30;3.28;;;1.55;;
43664;SDS011;29263;48.172;11.484;2022-08-05T14:48:57;2.13;;;1.40;;
43664;SDS011;29263;48.172;11.484;2022-08-05T14:51:23;3.75;;;1.67;;
43664;SDS011;29263;48.172;11.484;2022-08-05T14:53:49;3.92;;;1.63;;
43664;SDS011;29263;48.172;11.484;2022-08-05T14:56:15;4.25;;;1.58;;
43664;SDS011;29263;48.172;11.484;2022-08-05T14:58:41;5.53;;;1.70;;
43664;SDS011;29263;48.172;11.484;2022-08-05T15:01:07;1.65;;;1.40;;
43664;SDS011;29263;48.172;11.484;2022-08-05T15:03:33;2.47;;;1.50;;
43664;SDS011;29263;48.172;11.484;2022-08-05T15:05:58;3.67;;;1.40;;
43664;SDS011;29263;48.172;11.484;2022-08-05T15:08:24;3.75;;;1.50;;
43664;SDS011;29263;48.172;11.484;2022-08-05T15:10:50;3.53;;;1.48;;
43664;SDS011;29263;48.172;11.484;2022-08-05T15:13:16;3.33;;;1.50;;
43664;SDS011;29263;48.172;11.484;2022-08-05T15:15:42;2.70;;;2.17;;
43664;SDS011;29263;48.172;11.484;2022-08-05T15:18:07;2.97;;;1.48;;
43664;SDS011;29263;48.172;11.484;2022-08-05T15:20:33;1.40;;;1.27;;
43664;SDS011;29263;48.172;11.484;2022-08-05T15:23:06;3.58;;;1.55;;
43664;SDS011;29263;48.172;11.484;2022-08-05T15:25:33;3.80;;;2.00;;
43664;SDS011;29263;48.172;11.484;2022-08-05T15:27:59;3.15;;;1.40;;
43664;SDS011;29263;48.172;11.484;2022-08-05T15:30:25;4.00;;;1.60;;
43664;SDS011;29263;48.172;11.484;2022-08-05T15:32:52;4.90;;;2.10;;
43664;SDS011;29263;48.172;11.484;2022-08-05T15:35:20;2.70;;;1.60;;
43664;SDS011;29263;48.172;11.484;2022-08-05T15:37:46;3.78;;;1.42;;
43664;SDS011;29263;48.172;11.484;2022-08-05T15:40:11;5.70;;;1.80;;